sensor_id;sensor_type;location;lat;lon;timestamp;P1;durP1;ratioP1;P2;durP2;ratioP2
63653;SDS011;49809;47.418;19.080;2022-10-17T02:50:42;12.52;;;6.28;;
63653;SDS011;49809;47.418;19.080;2022-10-17T05:30:33;12.80;;;6.65;;
63653;SDS011;49809;47.418;19.080;2022-10-17T05:35:01;9.80;;;6.45;;
63653;SDS011;49809;47.418;19.080;2022-10-17T05:38:39;14.87;;;6.97;;
63653;SDS011;49809;47.418;19.080;2022-10-17T05:42:18;20.30;;;8.20;;
63653;SDS011;49809;47.418;19.080;2022-10-17T05:50:07;15.77;;;8.80;;
63653;SDS011;49809;47.418;19.080;2022-10-17T05:58:30;14.63;;;8.20;;
63653;SDS011;49809;47.418;19.080;2022-10-17T06:02:16;16.45;;;9.45;;
63653;SDS011;49809;47.418;19.080;2022-10-17T06:06:17;13.18;;;8.38;;
63653;SDS011;49809;47.418;19.080;2022-10-17T07:18:08;13.82;;;6.85;;
63653;SDS011;49809;47.418;19.080;2022-10-17T07:25:59;10.57;;;5.65;;
63653;SDS011;49809;47.418;19.080;2022-10-17T07:37:59;10.18;;;5.82;;
63653;SDS011;49809;47.418;19.080;2022-10-17T07:41:49;10.02;;;5.32;;
63653;SDS011;49809;47.418;19.080;2022-10-17T07:52:48;10.02;;;6.07;;
63653;SDS011;49809;47.418;19.080;2022-10-17T07:56:31;11.02;;;5.53;;
63653;SDS011;49809;47.418;19.080;2022-10-17T07:59:55;10.18;;;5.55;;
63653;SDS011;49809;47.418;19.080;2022-10-17T08:25:43;10.55;;;5.43;;
63653;SDS011;49809;47.418;19.080;2022-10-17T08:33:28;8.52;;;5.18;;
63653;SDS011;49809;47.418;19.080;2022-10-17T08:59:37;8.05;;;4.57;;
63653;SDS011;49809;47.418;19.080;2022-10-17T10:20:35;6.87;;;3.47;;
63653;SDS011;49809;47.418;19.080;2022-10-17T10:24:19;5.32;;;3.25;;
63653;SDS011;49809;47.418;19.080;2022-10-17T10:27:49;10.43;;;3.20;;
63653;SDS011;49809;47.418;19.080;2022-10-17T10:31:45;5.50;;;3.37;;
63653;SDS011;49809;47.418;19.080;2022-10-17T10:35:51;10.18;;;3.60;;
63653;SDS011;49809;47.418;19.080;2022-10-17T10:44:28;3.85;;;3.05;;
63653;SDS011;49809;47.418;19.080;2022-10-17T13:06:04;4.32;;;2.20;;
63653;SDS011;49809;47.418;19.080;2022-10-17T13:14:51;3.75;;;2.67;;
63653;SDS011;49809;47.418;19.080;2022-10-17T13:18:31;6.30;;;2.20;;
63653;SDS011;49809;47.418;19.080;2022-10-17T13:22:18;7.10;;;2.50;;
63653;SDS011;49809;47.418;19.080;2022-10-17T13:30:24;3.50;;;2.62;;
63653;SDS011;49809;47.418;19.080;2022-10-17T13:34:15;3.67;;;2.30;;
63653;SDS011;49809;47.418;19.080;2022-10-17T13:37:50;3.62;;;2.60;;
63653;SDS011;49809;47.418;19.080;2022-10-17T13:52:44;3.35;;;2.55;;
63653;SDS011;49809;47.418;19.080;2022-10-17T13:56:30;4.30;;;2.40;;
63653;SDS011;49809;47.418;19.080;2022-10-17T14:00:06;3.05;;;2.35;;
63653;SDS011;49809;47.418;19.080;2022-10-17T14:03:41;3.03;;;2.37;;
63653;SDS011;49809;47.418;19.080;2022-10-17T14:07:26;3.60;;;2.28;;
63653;SDS011;49809;47.418;19.080;2022-10-17T14:15:15;3.33;;;2.17;;
63653;SDS011;49809;47.418;19.080;2022-10-17T14:19:26;3.97;;;2.40;;
63653;SDS011;49809;47.418;19.080;2022-10-17T14:22:56;3.00;;;2.40;;
63653;SDS011;49809;47.418;19.080;2022-10-17T14:26:45;3.92;;;2.60;;
63653;SDS011;49809;47.418;19.080;2022-10-17T14:34:15;10.30;;;3.30;;
63653;SDS011;49809;47.418;19.080;2022-10-17T14:38:19;6.43;;;3.03;;
63653;SDS011;49809;47.418;19.080;2022-10-17T14:41:47;6.35;;;2.92;;
63653;SDS011;49809;47.418;19.080;2022-10-17T14:46:10;6.25;;;3.15;;
63653;SDS011;49809;47.418;19.080;2022-10-17T14:53:59;6.80;;;2.80;;
63653;SDS011;49809;47.418;19.080;2022-10-17T14:57:43;5.30;;;2.60;;
63653;SDS011;49809;47.418;19.080;2022-10-17T15:08:31;3.75;;;2.50;;
63653;SDS011;49809;47.418;19.080;2022-10-17T15:12:21;4.40;;;2.67;;
63653;SDS011;49809;47.418;19.080;2022-10-17T15:23:13;5.25;;;2.92;;
63653;SDS011;49809;47.418;19.080;2022-10-17T15:30:39;3.97;;;2.53;;
63653;SDS011;49809;47.418;19.080;2022-10-17T15:34:02;4.70;;;3.05;;
63653;SDS011;49809;47.418;19.080;2022-10-17T15:37:47;4.57;;;2.78;;
63653;SDS011;49809;47.418;19.080;2022-10-17T15:41:29;5.43;;;3.40;;
63653;SDS011;49809;47.418;19.080;2022-10-17T15:56:48;4.87;;;2.97;;
63653;SDS011;49809;47.418;19.080;2022-10-17T16:07:50;4.53;;;2.83;;
63653;SDS011;49809;47.418;19.080;2022-10-17T16:11:34;4.37;;;2.75;;
63653;SDS011;49809;47.418;19.080;2022-10-17T16:14:51;7.03;;;3.25;;
63653;SDS011;49809;47.418;19.080;2022-10-17T16:26:06;9.00;;;3.97;;
63653;SDS011;49809;47.418;19.080;2022-10-17T16:30:00;8.48;;;4.10;;
63653;SDS011;49809;47.418;19.080;2022-10-17T16:37:13;12.52;;;4.95;;
63653;SDS011;49809;47.418;19.080;2022-10-17T16:40:55;7.12;;;4.07;;
63653;SDS011;49809;47.418;19.080;2022-10-17T16:44:32;14.53;;;5.47;;
63653;SDS011;49809;47.418;19.080;2022-10-17T16:48:11;15.02;;;5.70;;
63653;SDS011;49809;47.418;19.080;2022-10-17T16:58:44;13.50;;;5.80;;
63653;SDS011;49809;47.418;19.080;2022-10-17T17:02:24;15.73;;;6.32;;
63653;SDS011;49809;47.418;19.080;2022-10-17T17:06:14;14.27;;;6.97;;
63653;SDS011;49809;47.418;19.080;2022-10-17T17:10:03;12.77;;;6.65;;
63653;SDS011;49809;47.418;19.080;2022-10-17T17:13:58;17.42;;;7.45;;
63653;SDS011;49809;47.418;19.080;2022-10-17T17:17:23;13.93;;;7.57;;
63653;SDS011;49809;47.418;19.080;2022-10-17T17:21:20;16.35;;;8.02;;
63653;SDS011;49809;47.418;19.080;2022-10-17T17:24:54;20.05;;;10.23;;
63653;SDS011;49809;47.418;19.080;2022-10-17T17:28:56;18.35;;;9.80;;
63653;SDS011;49809;47.418;19.080;2022-10-17T17:32:06;21.77;;;9.82;;
63653;SDS011;49809;47.418;19.080;2022-10-17T17:35:56;28.85;;;10.85;;
63653;SDS011;49809;47.418;19.080;2022-10-17T17:39:06;25.83;;;11.65;;
63653;SDS011;49809;47.418;19.080;2022-10-17T17:42:32;26.23;;;11.73;;
63653;SDS011;49809;47.418;19.080;2022-10-17T17:45:53;28.15;;;12.75;;
63653;SDS011;49809;47.418;19.080;2022-10-17T17:48:57;27.70;;;11.73;;
63653;SDS011;49809;47.418;19.080;2022-10-17T17:52:21;28.52;;;11.50;;
63653;SDS011;49809;47.418;19.080;2022-10-17T17:59:59;24.90;;;11.98;;
63653;SDS011;49809;47.418;19.080;2022-10-17T18:03:05;28.33;;;12.93;;
63653;SDS011;49809;47.418;19.080;2022-10-17T18:06:09;28.23;;;12.43;;
63653;SDS011;49809;47.418;19.080;2022-10-17T18:10:00;23.38;;;12.25;;
63653;SDS011;49809;47.418;19.080;2022-10-17T18:13:07;31.10;;;13.23;;
63653;SDS011;49809;47.418;19.080;2022-10-17T18:16:11;27.83;;;13.00;;
63653;SDS011;49809;47.418;19.080;2022-10-17T18:19:35;24.48;;;12.02;;
63653;SDS011;49809;47.418;19.080;2022-10-17T18:22:44;25.30;;;11.75;;
63653;SDS011;49809;47.418;19.080;2022-10-17T18:26:14;27.67;;;11.68;;
63653;SDS011;49809;47.418;19.080;2022-10-17T18:29:38;23.60;;;13.32;;
63653;SDS011;49809;47.418;19.080;2022-10-17T18:33:27;31.10;;;14.20;;
63653;SDS011;49809;47.418;19.080;2022-10-17T18:37:14;28.17;;;13.13;;
63653;SDS011;49809;47.418;19.080;2022-10-17T18:40:39;34.00;;;14.70;;
63653;SDS011;49809;47.418;19.080;2022-10-17T18:43:46;25.45;;;12.18;;
63653;SDS011;49809;47.418;19.080;2022-10-17T18:47:17;27.87;;;11.73;;
63653;SDS011;49809;47.418;19.080;2022-10-17T18:50:23;24.57;;;12.33;;
63653;SDS011;49809;47.418;19.080;2022-10-17T18:53:28;22.40;;;12.10;;
63653;SDS011;49809;47.418;19.080;2022-10-17T18:56:35;24.95;;;11.88;;
63653;SDS011;49809;47.418;19.080;2022-10-17T18:59:40;20.98;;;10.85;;
63653;SDS011;49809;47.418;19.080;2022-10-17T19:02:49;22.33;;;11.20;;
63653;SDS011;49809;47.418;19.080;2022-10-17T19:05:53;20.27;;;11.27;;
63653;SDS011;49809;47.418;19.080;2022-10-17T19:09:03;25.55;;;12.25;;
63653;SDS011;49809;47.418;19.080;2022-10-17T19:12:07;22.00;;;10.57;;
63653;SDS011;49809;47.418;19.080;2022-10-17T19:15:18;24.20;;;11.07;;
63653;SDS011;49809;47.418;19.080;2022-10-17T19:18:53;25.12;;;10.35;;
63653;SDS011;49809;47.418;19.080;2022-10-17T19:21:57;22.00;;;10.80;;
63653;SDS011;49809;47.418;19.080;2022-10-17T19:25:02;25.37;;;11.18;;
63653;SDS011;49809;47.418;19.080;2022-10-17T19:28:05;23.67;;;10.63;;
63653;SDS011;49809;47.418;19.080;2022-10-17T19:31:29;18.12;;;11.25;;
63653;SDS011;49809;47.418;19.080;2022-10-17T19:34:33;21.48;;;10.75;;
63653;SDS011;49809;47.418;19.080;2022-10-17T19:37:37;20.35;;;11.23;;
63653;SDS011;49809;47.418;19.080;2022-10-17T19:40:42;26.12;;;11.48;;
63653;SDS011;49809;47.418;19.080;2022-10-17T19:43:46;22.40;;;10.60;;
63653;SDS011;49809;47.418;19.080;2022-10-17T19:46:51;21.65;;;11.75;;
63653;SDS011;49809;47.418;19.080;2022-10-17T19:49:54;24.12;;;11.80;;
63653;SDS011;49809;47.418;19.080;2022-10-17T19:52:57;26.98;;;11.75;;
63653;SDS011;49809;47.418;19.080;2022-10-17T19:56:05;20.77;;;11.65;;
63653;SDS011;49809;47.418;19.080;2022-10-17T19:59:10;21.92;;;10.00;;
63653;SDS011;49809;47.418;19.080;2022-10-17T20:02:16;20.42;;;10.57;;
63653;SDS011;49809;47.418;19.080;2022-10-17T20:05:20;22.10;;;10.57;;
63653;SDS011;49809;47.418;19.080;2022-10-17T20:08:29;19.60;;;10.32;;
63653;SDS011;49809;47.418;19.080;2022-10-17T20:11:34;21.37;;;10.75;;
63653;SDS011;49809;47.418;19.080;2022-10-17T20:14:59;18.30;;;10.40;;
63653;SDS011;49809;47.418;19.080;2022-10-17T20:18:04;19.98;;;9.57;;
63653;SDS011;49809;47.418;19.080;2022-10-17T20:21:11;23.92;;;10.45;;
63653;SDS011;49809;47.418;19.080;2022-10-17T20:24:38;20.30;;;9.43;;
63653;SDS011;49809;47.418;19.080;2022-10-17T20:27:41;19.90;;;10.00;;
63653;SDS011;49809;47.418;19.080;2022-10-17T20:30:44;20.45;;;9.27;;
63653;SDS011;49809;47.418;19.080;2022-10-17T20:33:52;20.23;;;9.40;;
63653;SDS011;49809;47.418;19.080;2022-10-17T20:36:56;19.60;;;9.45;;
63653;SDS011;49809;47.418;19.080;2022-10-17T20:40:02;22.35;;;9.52;;
63653;SDS011;49809;47.418;19.080;2022-10-17T20:43:29;19.42;;;8.70;;
63653;SDS011;49809;47.418;19.080;2022-10-17T20:47:12;19.48;;;9.82;;
63653;SDS011;49809;47.418;19.080;2022-10-17T20:50:35;15.25;;;8.73;;
63653;SDS011;49809;47.418;19.080;2022-10-17T20:53:38;19.77;;;9.52;;
63653;SDS011;49809;47.418;19.080;2022-10-17T20:56:46;18.50;;;10.07;;
63653;SDS011;49809;47.418;19.080;2022-10-17T21:00:16;16.48;;;8.93;;
63653;SDS011;49809;47.418;19.080;2022-10-17T21:03:19;21.37;;;9.65;;
63653;SDS011;49809;47.418;19.080;2022-10-17T21:06:22;19.48;;;9.80;;
63653;SDS011;49809;47.418;19.080;2022-10-17T21:09:28;20.92;;;9.75;;
63653;SDS011;49809;47.418;19.080;2022-10-17T21:12:30;14.13;;;9.10;;
63653;SDS011;49809;47.418;19.080;2022-10-17T21:15:53;16.80;;;8.82;;
63653;SDS011;49809;47.418;19.080;2022-10-17T21:18:56;16.90;;;9.40;;
63653;SDS011;49809;47.418;19.080;2022-10-17T21:21:59;19.75;;;10.20;;
63653;SDS011;49809;47.418;19.080;2022-10-17T21:25:02;20.10;;;10.35;;
63653;SDS011;49809;47.418;19.080;2022-10-17T21:28:05;19.42;;;9.65;;
63653;SDS011;49809;47.418;19.080;2022-10-17T21:31:12;19.48;;;9.45;;
63653;SDS011;49809;47.418;19.080;2022-10-17T21:34:18;19.35;;;10.15;;
63653;SDS011;49809;47.418;19.080;2022-10-17T21:37:24;19.05;;;10.02;;
63653;SDS011;49809;47.418;19.080;2022-10-17T21:40:29;17.08;;;9.48;;
63653;SDS011;49809;47.418;19.080;2022-10-17T21:43:55;23.42;;;10.00;;
63653;SDS011;49809;47.418;19.080;2022-10-17T21:47:02;22.77;;;10.32;;
63653;SDS011;49809;47.418;19.080;2022-10-17T21:50:11;18.83;;;8.88;;
63653;SDS011;49809;47.418;19.080;2022-10-17T21:53:35;19.62;;;9.93;;
63653;SDS011;49809;47.418;19.080;2022-10-17T21:59:44;17.33;;;9.48;;
63653;SDS011;49809;47.418;19.080;2022-10-17T22:02:47;17.92;;;9.60;;
63653;SDS011;49809;47.418;19.080;2022-10-17T22:05:52;19.80;;;9.48;;
63653;SDS011;49809;47.418;19.080;2022-10-17T22:09:42;18.95;;;8.95;;
63653;SDS011;49809;47.418;19.080;2022-10-17T22:13:56;14.63;;;7.80;;
63653;SDS011;49809;47.418;19.080;2022-10-17T22:17:01;19.20;;;9.68;;
63653;SDS011;49809;47.418;19.080;2022-10-17T22:20:05;19.70;;;9.10;;
63653;SDS011;49809;47.418;19.080;2022-10-17T22:23:09;14.75;;;8.90;;
63653;SDS011;49809;47.418;19.080;2022-10-17T22:26:35;17.17;;;8.15;;
63653;SDS011;49809;47.418;19.080;2022-10-17T22:30:23;19.37;;;8.82;;
63653;SDS011;49809;47.418;19.080;2022-10-17T22:33:55;16.33;;;7.78;;
63653;SDS011;49809;47.418;19.080;2022-10-17T22:37:07;17.55;;;9.07;;
63653;SDS011;49809;47.418;19.080;2022-10-17T22:40:11;15.30;;;8.43;;
63653;SDS011;49809;47.418;19.080;2022-10-17T22:43:16;16.75;;;8.30;;
63653;SDS011;49809;47.418;19.080;2022-10-17T22:46:21;15.77;;;8.43;;
63653;SDS011;49809;47.418;19.080;2022-10-17T22:49:28;16.90;;;8.18;;
63653;SDS011;49809;47.418;19.080;2022-10-17T22:53:13;16.08;;;8.02;;
63653;SDS011;49809;47.418;19.080;2022-10-17T22:57:05;10.93;;;6.65;;
63653;SDS011;49809;47.418;19.080;2022-10-17T23:00:28;15.23;;;7.65;;
63653;SDS011;49809;47.418;19.080;2022-10-17T23:03:34;16.58;;;8.80;;
63653;SDS011;49809;47.418;19.080;2022-10-17T23:06:39;13.23;;;8.02;;
63653;SDS011;49809;47.418;19.080;2022-10-17T23:10:02;18.83;;;8.70;;
63653;SDS011;49809;47.418;19.080;2022-10-17T23:13:11;17.12;;;7.85;;
63653;SDS011;49809;47.418;19.080;2022-10-17T23:16:15;16.35;;;7.75;;
63653;SDS011;49809;47.418;19.080;2022-10-17T23:19:22;11.77;;;7.30;;
63653;SDS011;49809;47.418;19.080;2022-10-17T23:22:45;17.58;;;7.57;;
63653;SDS011;49809;47.418;19.080;2022-10-17T23:25:49;14.18;;;8.07;;
63653;SDS011;49809;47.418;19.080;2022-10-17T23:28:53;18.33;;;8.43;;
63653;SDS011;49809;47.418;19.080;2022-10-17T23:31:58;13.45;;;8.02;;
63653;SDS011;49809;47.418;19.080;2022-10-17T23:35:04;13.95;;;7.97;;
63653;SDS011;49809;47.418;19.080;2022-10-17T23:38:08;12.50;;;7.97;;
63653;SDS011;49809;47.418;19.080;2022-10-17T23:41:17;17.17;;;7.03;;
63653;SDS011;49809;47.418;19.080;2022-10-17T23:44:21;11.18;;;6.87;;
63653;SDS011;49809;47.418;19.080;2022-10-17T23:47:26;10.77;;;7.12;;
63653;SDS011;49809;47.418;19.080;2022-10-17T23:50:50;18.30;;;7.75;;
63653;SDS011;49809;47.418;19.080;2022-10-17T23:53:55;15.30;;;8.05;;
63653;SDS011;49809;47.418;19.080;2022-10-17T23:56:59;16.87;;;7.12;;
